Time;durP1;ratioP1;P1;durP2;ratioP2;P2;SDS_P1;SDS_P2;PMS_P1;PMS_P2;Temp;Humidity;BMP_temperature;BMP_pressure;BME280_temperature;BME280_humidity;BME280_pressure;Samples;Min_cycle;Max_cycle;Signal;HPM_P1;HPM_P2
2023/10/16 00:01:54;;;;;;;7.88;5.28;;;9.60;99.90;;;;;;5015533;28;20060;-65
2023/10/16 00:04:21;;;;;;;2.25;1.38;;;9.60;99.90;;;;;;5015075;28;20164;-73
2023/10/16 00:06:49;;;;;;;2.97;0.98;;;9.50;99.90;;;;;;5017575;28;20033;-74
2023/10/16 00:09:15;;;;;;;1.40;0.90;;;9.20;99.90;;;;;;5022827;28;20543;-74
2023/10/16 00:11:42;;;;;;;2.05;0.90;;;9.10;99.90;;;;;;5022688;28;20041;-74
2023/10/16 00:14:23;;;;;;;2.50;0.90;;;9.00;99.90;;;;;;5024536;28;20061;-74
2023/10/16 00:16:50;;;;;;;2.53;0.90;;;9.10;99.90;;;;;;5022600;28;20118;-75
2023/10/16 00:19:16;;;;;;;2.00;0.50;;;9.00;99.90;;;;;;5019036;28;20087;-74
2023/10/16 00:21:45;;;;;;;2.78;0.68;;;9.00;99.90;;;;;;5012115;28;20119;-71
2023/10/16 00:24:12;;;;;;;3.40;0.50;;;9.00;99.90;;;;;;5011132;28;20066;-71
2023/10/16 00:26:48;;;;;;;1.17;0.60;;;8.90;99.90;;;;;;5012718;28;20108;-70
2023/10/16 00:29:19;;;;;;;1.15;0.60;;;9.00;99.90;;;;;;5019697;28;20106;-70
2023/10/16 00:31:51;;;;;;;2.30;0.70;;;9.10;99.90;;;;;;5016707;28;20127;-69
2023/10/16 00:34:20;;;;;;;2.97;0.68;;;9.10;99.90;;;;;;5010863;28;20588;-68
2023/10/16 00:36:50;;;;;;;2.40;0.80;;;9.00;99.90;;;;;;5017615;28;20152;-71
2023/10/16 00:39:17;;;;;;;1.05;0.50;;;9.10;99.90;;;;;;5017833;28;20075;-70
2023/10/16 00:41:50;;;;;;;1.48;0.75;;;9.20;99.90;;;;;;5013677;28;20927;-68
2023/10/16 00:44:18;;;;;;;1.63;1.10;;;9.10;99.90;;;;;;5015430;28;20083;-68
2023/10/16 00:46:48;;;;;;;2.50;0.90;;;9.10;99.90;;;;;;5016583;28;20762;-68
2023/10/16 00:49:18;;;;;;;3.15;1.05;;;9.10;99.90;;;;;;5020997;28;20041;-68
2023/10/16 00:51:46;;;;;;;2.20;0.68;;;9.00;99.90;;;;;;5000097;28;20385;-67
2023/10/16 00:54:18;;;;;;;1.13;0.60;;;9.00;99.90;;;;;;5008846;28;20128;-68
2023/10/16 00:56:50;;;;;;;1.27;0.85;;;9.00;99.90;;;;;;5008700;28;20425;-68
2023/10/16 00:59:16;;;;;;;1.20;0.88;;;8.90;99.90;;;;;;5013608;28;20075;-68
2023/10/16 01:01:46;;;;;;;3.88;2.22;;;8.90;99.90;;;;;;5010344;28;21420;-71
2023/10/16 01:04:19;;;;;;;4.32;1.77;;;9.00;99.90;;;;;;5013038;28;20033;-71
2023/10/16 01:06:45;;;;;;;2.47;1.40;;;9.00;99.90;;;;;;4993641;28;20029;-71
2023/10/16 01:09:22;;;;;;;1.15;0.70;;;9.10;99.90;;;;;;4987618;28;20048;-71
2023/10/16 01:11:52;;;;;;;2.17;0.80;;;9.10;99.90;;;;;;5011914;28;20636;-70
2023/10/16 01:14:19;;;;;;;1.65;1.13;;;9.10;99.90;;;;;;5020628;28;20845;-70
2023/10/16 01:16:46;;;;;;;1.08;0.50;;;9.10;99.90;;;;;;5013736;28;20033;-70
2023/10/16 01:19:14;;;;;;;1.65;0.77;;;9.10;99.90;;;;;;5020971;28;20052;-70
2023/10/16 01:21:40;;;;;;;1.92;0.88;;;9.00;99.90;;;;;;5019933;28;20021;-70
2023/10/16 01:24:16;;;;;;;1.50;0.75;;;9.00;99.90;;;;;;5022840;28;20041;-70
2023/10/16 01:26:42;;;;;;;0.98;0.57;;;9.00;99.90;;;;;;5013614;28;20037;-70
2023/10/16 01:29:14;;;;;;;1.42;0.85;;;9.00;99.90;;;;;;5021315;28;20025;-70
2023/10/16 01:31:43;;;;;;;1.23;0.80;;;8.90;99.90;;;;;;5023228;28;20049;-70
2023/10/16 01:34:12;;;;;;;1.33;0.60;;;8.90;99.90;;;;;;5022857;28;20036;-70
2023/10/16 01:36:45;;;;;;;2.67;0.70;;;8.90;99.90;;;;;;5001571;28;20055;-70
2023/10/16 01:39:47;;;;;;;2.67;0.63;;;8.90;99.90;;;;;;5003557;28;20106;-68
2023/10/16 01:41:56;;;;;;;1.42;0.73;;;8.90;99.90;;;;;;5021892;28;20072;-68
2023/10/16 01:44:22;;;;;;;0.68;0.40;;;9.00;99.90;;;;;;5029094;28;20044;-69
2023/10/16 01:46:48;;;;;;;2.47;0.68;;;9.00;99.90;;;;;;5004418;28;20087;-68
2023/10/16 01:49:13;;;;;;;0.90;0.60;;;9.10;99.90;;;;;;5021755;28;20460;-69
2023/10/16 01:51:43;;;;;;;0.88;0.50;;;9.10;99.90;;;;;;5026089;28;20048;-69
2023/10/16 01:54:11;;;;;;;1.55;0.80;;;9.00;99.90;;;;;;5023991;28;20048;-68
2023/10/16 01:56:37;;;;;;;1.30;0.57;;;9.00;99.90;;;;;;5023722;28;20049;-69
2023/10/16 01:59:03;;;;;;;2.67;0.73;;;8.90;99.90;;;;;;5016560;28;20757;-68
2023/10/16 02:01:29;;;;;;;0.85;0.60;;;8.90;99.90;;;;;;5007592;28;20061;-68
2023/10/16 02:03:54;;;;;;;2.85;1.00;;;8.80;99.90;;;;;;5028260;28;20037;-68
2023/10/16 02:06:20;;;;;;;1.17;0.77;;;8.90;99.90;;;;;;5019387;28;20099;-69
2023/10/16 02:08:47;;;;;;;2.40;0.90;;;8.90;99.90;;;;;;5026364;28;22307;-68
2023/10/16 02:11:16;;;;;;;2.40;0.73;;;8.80;99.90;;;;;;5021630;28;20059;-68
2023/10/16 02:13:44;;;;;;;1.80;0.60;;;8.80;99.90;;;;;;5020384;28;20246;-67
2023/10/16 02:16:12;;;;;;;1.90;0.57;;;8.60;99.90;;;;;;5019715;28;20040;-68
2023/10/16 02:18:41;;;;;;;1.40;0.57;;;8.60;99.90;;;;;;5022065;28;20068;-67
2023/10/16 02:21:11;;;;;;;2.83;0.60;;;8.60;99.90;;;;;;5017690;28;20129;-67
2023/10/16 02:23:46;;;;;;;0.90;0.50;;;8.60;99.90;;;;;;5021588;28;20394;-67
2023/10/16 02:26:14;;;;;;;3.20;0.77;;;8.60;99.90;;;;;;5024627;28;20124;-67
2023/10/16 02:28:46;;;;;;;1.17;0.52;;;8.50;99.90;;;;;;5017946;28;20029;-67
2023/10/16 02:31:14;;;;;;;1.92;0.70;;;8.50;99.90;;;;;;5018192;28;20718;-67
2023/10/16 02:33:44;;;;;;;1.20;0.65;;;8.30;99.90;;;;;;5020118;28;20047;-66
2023/10/16 02:36:11;;;;;;;2.00;0.90;;;8.20;99.90;;;;;;5002645;28;20710;-67
2023/10/16 02:38:36;;;;;;;2.25;0.90;;;8.20;99.90;;;;;;5021692;28;20065;-67
2023/10/16 02:41:03;;;;;;;4.68;0.77;;;8.10;99.90;;;;;;5016364;28;20051;-67
2023/10/16 02:43:29;;;;;;;3.17;0.80;;;8.10;99.90;;;;;;5019739;28;20041;-68
2023/10/16 02:45:56;;;;;;;1.85;0.80;;;8.00;99.90;;;;;;5019640;28;20047;-67
2023/10/16 02:48:23;;;;;;;2.15;0.73;;;7.90;99.90;;;;;;5023993;28;20075;-67
2023/10/16 02:50:50;;;;;;;1.85;0.80;;;7.80;99.90;;;;;;5021321;28;20036;-66
2023/10/16 02:53:21;;;;;;;2.72;0.80;;;7.80;99.90;;;;;;5019983;28;20755;-70
2023/10/16 02:55:53;;;;;;;2.67;1.02;;;7.80;99.90;;;;;;5021173;28;20913;-69
2023/10/16 02:58:22;;;;;;;1.73;0.95;;;7.70;99.90;;;;;;5012704;28;20049;-69
2023/10/16 03:00:53;;;;;;;2.42;0.98;;;7.70;99.90;;;;;;5021729;28;20044;-69
2023/10/16 03:03:21;;;;;;;2.85;1.02;;;7.60;99.90;;;;;;5018406;28;20064;-69
2023/10/16 03:05:49;;;;;;;1.52;0.85;;;7.40;99.90;;;;;;5020777;28;20516;-70
2023/10/16 03:08:18;;;;;;;1.83;1.08;;;7.10;99.90;;;;;;5020273;28;20123;-69
2023/10/16 03:10:45;;;;;;;1.15;0.80;;;7.00;99.90;;;;;;5017003;28;20032;-67
2023/10/16 03:13:14;;;;;;;1.08;0.50;;;6.90;99.90;;;;;;5020378;28;20080;-67
2023/10/16 03:18:28;;;;;;;2.40;0.77;;;6.70;99.90;;;;;;4998260;28;20669;-67
2023/10/16 03:23:54;;;;;;;1.88;0.95;;;6.80;99.90;;;;;;5020994;28;20041;-67
2023/10/16 03:28:47;;;;;;;1.92;0.65;;;6.70;99.90;;;;;;5014796;28;20044;-67
2023/10/16 03:31:13;;;;;;;1.98;0.93;;;6.70;99.90;;;;;;5014237;28;20052;-67
2023/10/16 03:33:38;;;;;;;0.95;0.60;;;6.80;99.90;;;;;;5021856;28;20057;-67
2023/10/16 03:36:04;;;;;;;1.35;0.85;;;6.80;99.90;;;;;;5020804;28;20029;-67
2023/10/16 03:38:41;;;;;;;2.67;1.10;;;6.80;99.90;;;;;;5019196;28;20122;-67
2023/10/16 03:41:42;;;;;;;2.53;0.70;;;6.90;99.90;;;;;;5011504;28;20044;-67
2023/10/16 03:44:07;;;;;;;1.90;0.88;;;6.90;99.90;;;;;;5024021;28;20064;-67
2023/10/16 03:46:33;;;;;;;1.60;0.60;;;6.90;99.90;;;;;;5022895;28;20036;-69
2023/10/16 03:49:00;;;;;;;4.38;0.88;;;6.80;99.90;;;;;;5026321;28;20045;-68
2023/10/16 03:51:26;;;;;;;0.98;0.65;;;6.70;99.90;;;;;;5020318;28;20545;-67
2023/10/16 03:53:56;;;;;;;1.23;0.70;;;6.60;99.90;;;;;;5026745;28;20052;-67
2023/10/16 03:56:22;;;;;;;1.38;0.73;;;6.60;99.90;;;;;;5011647;28;20151;-67
2023/10/16 03:58:48;;;;;;;1.27;0.75;;;6.70;99.90;;;;;;5020771;28;20132;-67
2023/10/16 04:01:21;;;;;;;1.88;0.77;;;6.70;99.90;;;;;;5017261;28;20032;-68
2023/10/16 04:03:47;;;;;;;4.80;0.70;;;6.60;99.90;;;;;;5023594;28;20067;-67
2023/10/16 04:06:19;;;;;;;1.73;0.70;;;6.60;99.90;;;;;;5019956;28;20118;-69
2023/10/16 04:08:49;;;;;;;1.42;0.73;;;6.70;99.90;;;;;;5023072;28;20482;-69
2023/10/16 04:11:19;;;;;;;2.65;0.77;;;6.70;99.90;;;;;;5017809;28;20041;-70
2023/10/16 04:13:47;;;;;;;1.30;0.70;;;6.70;99.90;;;;;;5023767;28;20126;-70
2023/10/16 04:24:31;;;;;;;2.33;0.90;;;6.60;99.90;;;;;;5023327;28;20107;-66
2023/10/16 04:34:52;;;;;;;1.50;0.63;;;6.50;99.90;;;;;;5014891;28;20126;-66
2023/10/16 04:48:06;;;;;;;1.83;0.80;;;6.30;99.90;;;;;;5019062;28;20069;-69
2023/10/16 05:03:23;;;;;;;2.33;0.98;;;6.10;99.90;;;;;;5013134;28;20056;-68
2023/10/16 05:16:36;;;;;;;0.77;0.77;;;6.20;99.90;;;;;;4999802;28;20037;-67
2023/10/16 05:22:09;;;;;;;2.78;0.85;;;6.30;99.90;;;;;;4980687;28;20121;-67
2023/10/16 06:14:13;;;;;;;2.08;1.48;;;7.80;99.90;;;;;;5023039;28;20103;-71
2023/10/16 06:16:45;;;;;;;2.38;1.48;;;7.80;99.90;;;;;;5019669;28;20036;-71
2023/10/16 06:19:15;;;;;;;1.73;1.50;;;7.70;99.90;;;;;;5017988;28;20402;-72
2023/10/16 06:21:45;;;;;;;2.05;1.52;;;7.70;99.90;;;;;;5020918;28;20422;-72
2023/10/16 06:24:35;;;;;;;3.08;1.42;;;7.80;99.90;;;;;;5019378;28;20044;-71
2023/10/16 06:27:09;;;;;;;1.33;0.90;;;7.70;99.90;;;;;;5015662;28;20053;-71
2023/10/16 06:29:49;;;;;;;3.80;1.60;;;7.70;99.90;;;;;;5012118;28;20163;-71
2023/10/16 06:32:18;;;;;;;6.03;1.73;;;7.80;99.90;;;;;;5015213;28;20488;-71
2023/10/16 06:34:48;;;;;;;2.65;1.02;;;7.70;99.90;;;;;;5020112;28;20116;-72
2023/10/16 06:37:17;;;;;;;1.45;1.10;;;7.90;99.90;;;;;;5018188;28;20067;-72
2023/10/16 06:39:46;;;;;;;2.28;1.40;;;7.90;99.90;;;;;;5019073;28;20067;-71
2023/10/16 06:42:18;;;;;;;2.22;1.17;;;8.10;99.90;;;;;;5019134;28;20163;-71
2023/10/16 06:44:50;;;;;;;2.25;1.80;;;8.20;99.90;;;;;;5027157;28;20044;-71
2023/10/16 06:47:23;;;;;;;2.25;1.13;;;8.40;99.90;;;;;;5014497;28;20146;-71
2023/10/16 06:49:50;;;;;;;2.03;1.10;;;8.60;99.90;;;;;;5002888;28;20040;-71
2023/10/16 06:52:17;;;;;;;2.30;1.17;;;8.80;99.90;;;;;;5010148;28;20040;-66
2023/10/16 06:54:44;;;;;;;1.95;0.77;;;9.00;99.90;;;;;;5008766;28;20055;-65
2023/10/16 06:57:13;;;;;;;1.55;1.02;;;9.30;99.90;;;;;;4990926;28;20044;-68
2023/10/16 06:59:40;;;;;;;1.08;0.70;;;9.50;99.90;;;;;;5009043;28;20041;-66
2023/10/16 07:02:09;;;;;;;2.17;0.77;;;9.60;99.90;;;;;;5006062;28;20037;-67
2023/10/16 07:04:40;;;;;;;1.85;0.80;;;9.80;99.90;;;;;;5011997;28;20041;-66
2023/10/16 07:07:14;;;;;;;1.27;0.70;;;10.00;99.90;;;;;;5009603;28;20045;-66
2023/10/16 07:09:54;;;;;;;1.92;0.98;;;10.20;99.90;;;;;;5005361;28;20419;-66
2023/10/16 07:12:20;;;;;;;1.20;0.75;;;10.40;99.90;;;;;;5015838;28;20028;-66
2023/10/16 07:14:55;;;;;;;1.08;0.80;;;10.60;99.90;;;;;;4996378;28;20041;-67
2023/10/16 07:17:24;;;;;;;2.90;0.60;;;10.80;99.90;;;;;;5013711;28;20067;-66
2023/10/16 07:19:51;;;;;;;4.20;1.88;;;11.10;99.90;;;;;;5016985;28;20089;-67
2023/10/16 07:22:16;;;;;;;4.35;3.67;;;11.30;99.90;;;;;;5024161;28;20040;-66
2023/10/16 07:24:42;;;;;;;1.27;0.60;;;11.40;99.90;;;;;;5009765;28;20382;-66
2023/10/16 07:27:12;;;;;;;1.30;0.60;;;11.50;99.90;;;;;;5024064;28;20063;-66
2023/10/16 07:29:46;;;;;;;7.60;0.88;;;11.60;99.90;;;;;;5014817;28;20397;-66
2023/10/16 07:32:12;;;;;;;1.50;0.70;;;11.60;99.90;;;;;;5023310;28;20037;-66
2023/10/16 07:34:38;;;;;;;1.55;0.68;;;11.70;99.90;;;;;;5015660;28;20033;-66
2023/10/16 07:37:07;;;;;;;3.20;1.00;;;11.80;99.90;;;;;;5019295;28;20029;-66
2023/10/16 07:39:36;;;;;;;0.75;0.50;;;11.80;99.90;;;;;;5017442;28;20834;-66
2023/10/16 07:42:02;;;;;;;3.72;0.93;;;12.00;99.90;;;;;;5010976;28;20103;-66
2023/10/16 07:44:28;;;;;;;0.43;0.40;;;12.10;99.90;;;;;;5012230;28;20038;-66
2023/10/16 07:46:54;;;;;;;1.98;0.25;;;11.90;99.90;;;;;;5008602;28;20123;-71
2023/10/16 07:49:25;;;;;;;1.27;0.50;;;11.80;99.90;;;;;;5012334;28;20037;-71
2023/10/16 07:51:52;;;;;;;2.22;0.43;;;11.90;99.90;;;;;;5013793;28;20176;-72
2023/10/16 07:54:20;;;;;;;1.08;0.63;;;12.00;99.90;;;;;;5016338;28;20055;-71
2023/10/16 07:56:49;;;;;;;1.23;0.45;;;12.00;99.90;;;;;;5016268;28;20040;-71
2023/10/16 07:59:21;;;;;;;1.92;1.00;;;12.10;99.90;;;;;;5013790;28;20119;-71
2023/10/16 08:01:52;;;;;;;;;;;12.10;99.90;;;;;;5011145;28;20372;-71
2023/10/16 08:06:48;;;;;;;4.97;0.88;;;12.20;99.90;;;;;;5011813;28;20049;-65
2023/10/16 08:12:12;;;;;;;0.82;0.52;;;12.10;99.90;;;;;;5008927;28;20468;-65
2023/10/16 08:14:41;;;;;;;1.95;0.60;;;12.00;99.90;;;;;;5009154;28;20179;-65
2023/10/16 08:17:17;;;;;;;2.05;0.40;;;11.90;99.90;;;;;;5013523;28;20132;-65
2023/10/16 08:19:44;;;;;;;24.60;1.92;;;11.90;99.90;;;;;;5007723;28;20037;-61
2023/10/16 08:22:13;;;;;;;0.70;0.38;;;12.00;99.90;;;;;;5015993;28;20049;-70
2023/10/16 08:24:43;;;;;;;2.47;0.63;;;12.20;99.90;;;;;;5017849;28;20037;-65
2023/10/16 08:27:22;;;;;;;1.38;0.73;;;12.30;99.90;;;;;;5023733;28;20755;-66
2023/10/16 08:29:53;;;;;;;2.88;0.95;;;12.20;99.90;;;;;;5011916;28;20053;-67
2023/10/16 08:35:09;;;;;;;2.05;0.60;;;12.30;99.90;;;;;;5025000;28;20043;-66
2023/10/16 08:37:36;;;;;;;0.98;0.47;;;12.30;99.90;;;;;;5016534;28;20036;-66
2023/10/16 08:40:02;;;;;;;2.58;0.70;;;12.30;99.90;;;;;;5013589;28;20045;-67
2023/10/16 08:42:28;;;;;;;2.60;0.80;;;12.40;99.90;;;;;;5020891;28;20033;-73
2023/10/16 08:47:42;;;;;;;1.48;0.38;;;12.40;99.90;;;;;;5026907;28;20132;-72
2023/10/16 08:50:17;;;;;;;2.50;0.60;;;12.50;99.90;;;;;;5023476;28;20037;-71
2023/10/16 08:52:58;;;;;;;2.72;0.60;;;12.70;99.90;;;;;;5013501;28;20062;-72
2023/10/16 08:55:26;;;;;;;2.65;0.68;;;12.70;99.90;;;;;;5021124;28;20044;-71
2023/10/16 08:57:52;;;;;;;5.00;0.90;;;12.60;99.90;;;;;;5011711;28;20147;-72
2023/10/16 09:00:22;;;;;;;8.65;0.80;;;12.60;99.90;;;;;;5025339;28;20041;-72
2023/10/16 09:02:53;;;;;;;1.98;0.60;;;12.30;99.90;;;;;;5000011;28;26060;-72
2023/10/16 09:05:20;;;;;;;0.60;0.30;;;12.20;99.90;;;;;;5020720;28;20183;-73
2023/10/16 09:07:48;;;;;;;1.55;0.90;;;12.20;99.90;;;;;;5025783;28;20033;-73
2023/10/16 09:10:15;;;;;;;2.78;0.88;;;12.20;99.90;;;;;;5018305;28;20771;-72
2023/10/16 09:12:55;;;;;;;1.00;0.55;;;12.10;99.90;;;;;;5024241;28;20040;-73
2023/10/16 09:15:27;;;;;;;1.75;0.70;;;11.90;99.90;;;;;;5020165;28;21462;-72
2023/10/16 09:17:54;;;;;;;1.23;0.70;;;11.90;99.90;;;;;;5022475;28;20037;-72
2023/10/16 09:20:32;;;;;;;1.13;0.50;;;11.80;99.90;;;;;;5030766;28;20131;-67
2023/10/16 09:23:06;;;;;;;3.22;0.90;;;11.50;99.90;;;;;;5021005;28;20040;-67
2023/10/16 09:25:31;;;;;;;3.33;0.77;;;11.40;99.90;;;;;;5025250;28;20660;-68
2023/10/16 09:27:57;;;;;;;5.35;0.82;;;11.50;99.90;;;;;;5021181;28;20032;-67
2023/10/16 09:30:23;;;;;;;1.83;0.82;;;11.60;99.90;;;;;;5023230;28;21422;-71
2023/10/16 09:32:51;;;;;;;1.63;0.45;;;11.30;99.90;;;;;;4996018;28;20606;-65
2023/10/16 09:35:26;;;;;;;3.35;0.98;;;11.10;99.90;;;;;;5025286;28;20047;-64
2023/10/16 09:37:52;;;;;;;1.30;0.63;;;11.10;99.90;;;;;;4999796;28;20041;-73
2023/10/16 09:43:06;;;;;;;1.98;0.70;;;11.30;99.90;;;;;;5022261;28;20079;-72
2023/10/16 09:45:36;;;;;;;1.90;0.52;;;11.40;99.90;;;;;;5024228;28;20578;-72
2023/10/16 09:48:07;;;;;;;1.95;0.70;;;11.70;99.90;;;;;;5021127;28;20138;-70
2023/10/16 09:50:37;;;;;;;1.48;0.65;;;11.80;99.90;;;;;;5024364;28;20033;-70
2023/10/16 09:53:10;;;;;;;1.50;0.70;;;12.00;99.90;;;;;;5024552;28;20120;-70
2023/10/16 09:55:38;;;;;;;;;;;12.20;99.90;;;;;;5019208;28;20111;-75
2023/10/16 09:58:06;;;;;;;2.03;0.90;;;12.20;99.90;;;;;;5021878;28;20436;-75
2023/10/16 10:00:32;;;;;;;1.55;0.75;;;12.10;99.90;;;;;;5021599;28;20061;-75
2023/10/16 10:03:05;;;;;;;2.08;0.75;;;12.30;99.90;;;;;;5023466;28;20127;-76
2023/10/16 10:05:41;;;;;;;2.67;0.60;;;12.40;99.90;;;;;;5017489;28;20557;-74
2023/10/16 10:08:23;;;;;;;1.92;0.45;;;12.50;99.90;;;;;;5015771;28;20090;-75
2023/10/16 10:13:43;;;;;;;2.90;0.65;;;12.50;99.90;;;;;;5013160;28;20528;-65
2023/10/16 10:16:20;;;;;;;0.45;0.30;;;12.40;99.90;;;;;;5022742;28;20128;-66
2023/10/16 10:18:49;;;;;;;1.00;0.60;;;12.30;99.90;;;;;;5014723;28;20498;-65
2023/10/16 10:21:18;;;;;;;2.05;0.60;;;12.10;99.90;;;;;;5016298;28;20076;-66
2023/10/16 10:23:46;;;;;;;1.90;0.50;;;12.00;99.90;;;;;;5016870;28;20041;-66
2023/10/16 10:26:18;;;;;;;1.33;0.60;;;12.10;99.90;;;;;;5024056;28;20049;-66
2023/10/16 10:28:45;;;;;;;;;;;12.20;99.90;;;;;;5017119;28;20044;-70
2023/10/16 10:31:12;;;;;;;1.55;0.75;;;12.20;99.90;;;;;;5024743;28;19975;-75
2023/10/16 10:33:51;;;;;;;2.17;0.80;;;12.10;99.90;;;;;;5020584;28;20027;-70
2023/10/16 10:36:34;;;;;;;0.70;0.40;;;12.30;99.90;;;;;;5022137;28;20076;-70
2023/10/16 10:39:21;;;;;;;1.40;0.50;;;12.40;99.90;;;;;;5021614;28;20036;-70
2023/10/16 10:41:48;;;;;;;1.92;0.55;;;12.80;99.90;;;;;;5029219;28;20032;-64
2023/10/16 10:44:15;;;;;;;0.73;0.40;;;12.90;99.90;;;;;;5029360;28;20087;-64
2023/10/16 10:46:44;;;;;;;1.65;0.70;;;12.90;99.90;;;;;;5028838;28;20025;-64
2023/10/16 10:49:15;;;;;;;1.70;0.50;;;13.00;99.90;;;;;;5020470;28;20171;-64
2023/10/16 10:51:44;;;;;;;2.47;0.85;;;13.20;99.90;;;;;;5025984;28;20048;-64
2023/10/16 10:54:12;;;;;;;4.13;0.70;;;13.40;99.80;;;;;;5033906;28;20049;-64
2023/10/16 10:56:47;;;;;;;3.72;0.73;;;13.10;99.90;;;;;;5018264;28;20067;-64
2023/10/16 10:59:33;;;;;;;1.85;0.70;;;13.20;99.90;;;;;;5010066;28;20044;-64
2023/10/16 11:04:46;;;;;;;2.95;0.75;;;13.10;99.90;;;;;;5023812;28;20055;-63
2023/10/16 11:07:23;;;;;;;1.88;0.60;;;13.20;99.90;;;;;;5010779;28;20044;-71
2023/10/16 11:09:49;;;;;;;3.97;0.68;;;13.30;99.90;;;;;;5018541;28;20098;-64
2023/10/16 11:12:15;;;;;;;2.17;0.55;;;13.30;99.90;;;;;;5016622;28;20056;-64
2023/10/16 11:14:40;;;;;;;1.73;0.50;;;13.30;99.90;;;;;;5016072;28;20359;-65
2023/10/16 11:17:06;;;;;;;0.93;0.45;;;13.30;99.00;;;;;;5019111;28;20053;-64
2023/10/16 11:19:49;;;;;;;1.25;0.60;;;13.30;99.90;;;;;;5019091;28;20033;-66
2023/10/16 11:22:27;;;;;;;1.20;0.60;;;13.40;98.70;;;;;;5022695;28;20032;-66
2023/10/16 11:24:53;;;;;;;1.08;0.50;;;13.40;97.60;;;;;;5020875;28;20146;-66
2023/10/16 11:27:19;;;;;;;1.20;0.43;;;13.30;98.00;;;;;;5016997;28;20060;-72
2023/10/16 11:29:46;;;;;;;1.15;0.30;;;13.30;97.70;;;;;;5024500;28;20725;-71
2023/10/16 11:32:15;;;;;;;2.13;0.50;;;13.40;98.30;;;;;;5012046;28;20052;-73
2023/10/16 11:34:44;;;;;;;1.70;0.68;;;13.40;96.90;;;;;;5027555;28;20162;-73
2023/10/16 11:37:13;;;;;;;1.55;0.40;;;13.50;97.10;;;;;;5020524;28;20069;-73
2023/10/16 11:39:39;;;;;;;2.90;0.70;;;13.80;97.90;;;;;;5014041;28;20029;-73
2023/10/16 11:42:06;;;;;;;1.98;0.50;;;14.10;97.90;;;;;;5014421;28;20044;-73
2023/10/16 11:44:32;;;;;;;2.42;0.85;;;14.30;96.20;;;;;;5023204;28;20526;-67
2023/10/16 11:47:02;;;;;;;1.45;0.50;;;14.30;95.20;;;;;;5029942;28;20029;-70
2023/10/16 11:49:37;;;;;;;2.33;0.60;;;14.50;94.60;;;;;;5018220;28;20053;-71
2023/10/16 11:52:19;;;;;;;1.75;0.32;;;14.80;95.50;;;;;;5005107;28;20037;-71
2023/10/16 11:54:45;;;;;;;1.77;0.55;;;15.00;94.70;;;;;;5013521;28;20136;-72
2023/10/16 11:57:13;;;;;;;1.27;0.50;;;14.90;94.00;;;;;;5010593;28;20059;-71
2023/10/16 11:59:40;;;;;;;2.58;0.50;;;14.80;93.30;;;;;;5006785;28;20045;-73
2023/10/16 12:02:18;;;;;;;1.33;0.70;;;14.70;93.30;;;;;;5009134;28;20569;-69
2023/10/16 12:04:44;;;;;;;1.55;0.55;;;14.30;93.10;;;;;;5022632;28;20037;-73
2023/10/16 12:07:13;;;;;;;1.50;0.35;;;14.10;94.30;;;;;;5007882;28;20427;-73
2023/10/16 12:09:47;;;;;;;0.88;0.50;;;14.20;94.00;;;;;;5004762;28;20966;-74
2023/10/16 12:12:19;;;;;;;0.70;0.40;;;14.30;93.00;;;;;;4993525;28;20128;-73
2023/10/16 12:14:50;;;;;;;1.17;0.30;;;14.00;94.30;;;;;;5020381;28;20471;-73
2023/10/16 12:17:19;;;;;;;0.70;0.30;;;13.90;93.90;;;;;;5031253;28;20036;-72
2023/10/16 12:19:45;;;;;;;1.23;0.47;;;14.00;93.60;;;;;;5025258;28;20798;-72
2023/10/16 12:22:15;;;;;;;2.63;0.50;;;14.10;92.60;;;;;;5022808;28;20119;-73
2023/10/16 12:24:43;;;;;;;1.25;0.40;;;14.00;92.60;;;;;;5019643;28;20037;-72
2023/10/16 12:27:09;;;;;;;2.42;0.30;;;14.00;92.70;;;;;;5018373;28;20041;-72
2023/10/16 12:29:35;;;;;;;1.52;0.63;;;14.10;93.00;;;;;;5020741;28;20052;-73
2023/10/16 12:32:03;;;;;;;1.23;0.60;;;14.30;92.80;;;;;;5022077;28;20482;-73
2023/10/16 12:34:32;;;;;;;0.50;0.30;;;14.30;93.20;;;;;;5024206;28;20048;-72
2023/10/16 12:37:00;;;;;;;1.33;0.55;;;14.50;93.80;;;;;;5019460;28;20036;-72
2023/10/16 12:39:28;;;;;;;1.52;0.47;;;14.60;92.10;;;;;;5029104;28;20062;-74
2023/10/16 12:42:01;;;;;;;0.60;0.40;;;14.50;93.50;;;;;;5025333;28;20764;-73
2023/10/16 12:44:27;;;;;;;1.13;0.50;;;14.60;92.50;;;;;;5008727;28;20799;-72
2023/10/16 12:46:54;;;;;;;1.63;0.50;;;14.50;92.00;;;;;;5020411;28;20079;-72
2023/10/16 12:49:23;;;;;;;1.27;0.30;;;14.30;91.70;;;;;;5029617;28;20482;-73
2023/10/16 12:51:49;;;;;;;0.30;0.30;;;14.20;91.40;;;;;;5024794;28;20056;-72
2023/10/16 12:54:16;;;;;;;3.40;0.73;;;14.20;91.00;;;;;;5004258;28;20128;-73
2023/10/16 12:56:45;;;;;;;1.83;0.40;;;14.30;90.90;;;;;;5007888;28;20132;-72
2023/10/16 12:59:10;;;;;;;2.05;1.02;;;14.10;90.30;;;;;;4998119;28;20040;-63
2023/10/16 13:01:40;;;;;;;12.32;5.68;;;14.20;91.70;;;;;;5004780;28;20130;-63
2023/10/16 13:04:13;;;;;;;1.88;0.40;;;14.30;91.90;;;;;;4986122;28;20758;-66
2023/10/16 13:06:39;;;;;;;2.25;0.40;;;14.50;91.80;;;;;;5004139;28;20033;-62
2023/10/16 13:09:14;;;;;;;7.32;2.50;;;14.80;90.00;;;;;;5001496;28;20113;-62
2023/10/16 13:11:39;;;;;;;0.63;0.40;;;14.80;90.90;;;;;;5009113;28;20056;-62
2023/10/16 13:14:05;;;;;;;1.45;0.32;;;14.90;89.90;;;;;;5017766;28;20132;-61
2023/10/16 13:16:31;;;;;;;2.83;0.60;;;14.90;87.30;;;;;;5006608;28;20037;-61
2023/10/16 13:18:57;;;;;;;1.17;0.30;;;14.80;89.90;;;;;;5018803;28;20033;-62
2023/10/16 13:21:32;;;;;;;2.65;0.50;;;14.90;90.40;;;;;;5014602;28;20068;-62
2023/10/16 13:24:16;;;;;;;0.88;0.50;;;15.00;87.10;;;;;;4998826;28;20037;-61
2023/10/16 13:26:42;;;;;;;38.47;27.13;;;15.00;88.30;;;;;;5005273;28;20033;-62
2023/10/16 13:29:10;;;;;;;1.23;0.68;;;15.00;86.80;;;;;;5005501;28;21118;-62
2023/10/16 13:31:41;;;;;;;2.17;1.02;;;15.00;87.00;;;;;;5003440;28;20021;-62
2023/10/16 13:34:11;;;;;;;1.80;0.60;;;15.10;88.10;;;;;;4983599;28;20041;-61
2023/10/16 13:37:08;;;;;;;39.50;25.45;;;15.20;86.70;;;;;;5000754;28;20604;-62
2023/10/16 13:39:38;;;;;;;2.28;0.55;;;15.30;85.40;;;;;;5002763;28;22432;-63
2023/10/16 13:42:14;;;;;;;1.60;0.50;;;15.40;84.70;;;;;;5009720;28;20929;-62
2023/10/16 13:44:40;;;;;;;6.35;0.80;;;15.30;84.30;;;;;;5009556;28;20463;-61
2023/10/16 13:47:08;;;;;;;0.40;0.20;;;15.30;84.50;;;;;;5008098;28;20064;-61
2023/10/16 13:49:37;;;;;;;5.00;0.55;;;15.30;83.50;;;;;;5013050;28;20056;-61
2023/10/16 13:52:03;;;;;;;1.98;0.30;;;15.40;84.80;;;;;;4998612;28;20033;-61
2023/10/16 13:54:31;;;;;;;1.50;0.63;;;15.50;84.70;;;;;;5004246;28;20037;-61
2023/10/16 13:56:57;;;;;;;1.67;0.40;;;15.60;81.70;;;;;;5006984;28;20036;-61
2023/10/16 13:59:23;;;;;;;1.05;0.50;;;15.60;81.70;;;;;;5003560;28;20576;-61
2023/10/16 14:01:49;;;;;;;1.85;0.35;;;15.50;81.10;;;;;;5014721;28;20045;-62
2023/10/16 14:04:16;;;;;;;7.78;0.80;;;15.50;83.30;;;;;;5020244;28;20048;-62
2023/10/16 14:06:52;;;;;;;4.80;0.50;;;15.60;83.10;;;;;;5018707;28;20044;-61
2023/10/16 14:09:28;;;;;;;2.55;0.17;;;15.80;82.30;;;;;;5012898;28;20057;-66
2023/10/16 14:11:58;;;;;;;2.05;0.43;;;15.70;78.80;;;;;;5021014;28;20040;-67
2023/10/16 14:14:26;;;;;;;0.80;0.35;;;15.30;79.70;;;;;;5007194;28;20043;-67
2023/10/16 14:17:03;;;;;;;3.67;0.50;;;15.10;78.80;;;;;;5014687;28;20106;-67
2023/10/16 14:19:29;;;;;;;1.40;0.35;;;15.20;78.60;;;;;;5014849;28;20064;-66
2023/10/16 14:21:57;;;;;;;1.92;0.40;;;16.40;79.10;;;;;;5006768;28;20935;-67
2023/10/16 14:24:27;;;;;;;0.20;0.10;;;18.30;72.20;;;;;;5001119;28;20040;-67
2023/10/16 14:26:57;;;;;;;7.78;0.57;;;20.10;68.20;;;;;;4987802;28;20512;-67
2023/10/16 14:29:24;;;;;;;1.55;0.40;;;21.70;63.70;;;;;;5008533;28;20083;-67
2023/10/16 14:31:51;;;;;;;7.97;0.47;;;23.00;56.20;;;;;;5013028;28;20032;-71
2023/10/16 14:34:24;;;;;;;0.75;0.28;;;23.90;55.10;;;;;;5014123;28;20095;-71
2023/10/16 14:36:51;;;;;;;5.10;0.40;;;24.30;50.20;;;;;;5010121;28;20045;-71
2023/10/16 14:39:17;;;;;;;1.55;0.50;;;24.30;50.80;;;;;;5004291;28;20056;-71
2023/10/16 14:41:44;;;;;;;1.10;0.38;;;24.50;49.30;;;;;;4997136;28;20047;-69
2023/10/16 14:44:11;;;;;;;1.73;0.25;;;24.30;46.70;;;;;;5005086;28;21222;-71
2023/10/16 14:46:37;;;;;;;0.70;0.30;;;24.00;48.10;;;;;;5006223;28;20605;-71
2023/10/16 14:49:09;;;;;;;1.08;0.35;;;24.30;47.90;;;;;;4978187;28;20060;-66
2023/10/16 14:51:38;;;;;;;;;;;24.80;46.50;;;;;;4996285;28;20445;-70
2023/10/16 14:54:10;;;;;;;1.02;0.30;;;24.90;44.50;;;;;;5002854;28;19919;-71
2023/10/16 14:56:37;;;;;;;;;;;24.50;45.50;;;;;;4998902;28;20107;-70
2023/10/16 14:59:11;;;;;;;0.40;0.20;;;23.90;45.90;;;;;;5009831;28;19916;-69
2023/10/16 15:01:37;;;;;;;2.20;0.50;;;23.30;47.30;;;;;;5010959;28;20061;-70
2023/10/16 15:04:04;;;;;;;1.73;0.63;;;23.60;47.00;;;;;;5014716;28;20048;-69
2023/10/16 15:06:30;;;;;;;0.98;0.50;;;24.20;46.30;;;;;;5002974;28;22086;-65
2023/10/16 15:08:59;;;;;;;0.85;0.30;;;24.80;45.20;;;;;;5010259;28;20057;-66
2023/10/16 15:11:26;;;;;;;2.53;0.40;;;25.50;43.80;;;;;;5006191;28;20052;-65
2023/10/16 15:13:52;;;;;;;2.00;0.40;;;24.80;44.30;;;;;;4987762;28;20056;-66
2023/10/16 15:16:21;;;;;;;0.52;0.30;;;23.40;46.00;;;;;;5013338;28;20045;-66